createdAt,value
2023-05-04T00:02:12.921Z,28.90
2023-05-04T00:04:42.970Z,19.70
2023-05-04T00:07:10.990Z,28.20
2023-05-04T00:09:39.044Z,29.70
2023-05-04T00:12:08.153Z,23.30
2023-05-04T00:14:37.504Z,24.10
2023-05-04T00:17:06.905Z,25.90
2023-05-04T00:19:36.159Z,26.40
2023-05-04T00:22:03.932Z,22.90
2023-05-04T00:24:31.773Z,23.00
2023-05-04T00:26:59.751Z,25.00
2023-05-04T00:29:27.503Z,27.40
2023-05-04T00:31:55.290Z,23.40
2023-05-04T00:34:23.099Z,18.40
2023-05-04T00:36:50.944Z,20.70
2023-05-04T00:39:18.716Z,26.60
2023-05-04T00:41:46.510Z,23.60
2023-05-04T00:44:14.577Z,21.80
2023-05-04T00:46:42.699Z,20.60
2023-05-04T00:49:10.723Z,20.20
2023-05-04T00:51:38.534Z,22.70
2023-05-04T00:54:06.378Z,22.20
2023-05-04T00:56:41.168Z,17.90
2023-05-04T00:59:09.439Z,23.10
2023-05-04T01:01:37.425Z,23.20
2023-05-04T01:04:05.926Z,19.00
2023-05-04T01:06:52.947Z,25.50
2023-05-04T01:10:05.752Z,21.90
2023-05-04T01:12:48.091Z,21.90
2023-05-04T01:15:16.382Z,22.40
2023-05-04T01:17:44.265Z,20.70
2023-05-04T01:20:12.512Z,21.70
2023-05-04T01:22:40.788Z,26.60
2023-05-04T01:25:09.612Z,22.10
2023-05-04T01:27:50.549Z,20.20
2023-05-04T01:30:26.210Z,21.10
2023-05-04T01:32:55.859Z,20.50
2023-05-04T01:35:25.826Z,22.30
2023-05-04T01:37:54.424Z,21.30
2023-05-04T01:40:22.275Z,18.50
2023-05-04T01:42:50.179Z,18.10
2023-05-04T01:45:18.196Z,22.20
2023-05-04T01:47:46.524Z,20.10
2023-05-04T01:50:14.645Z,24.10
2023-05-04T01:52:42.360Z,21.00
2023-05-04T01:55:10.387Z,23.60
2023-05-04T01:57:38.174Z,23.60
2023-05-04T02:00:07.075Z,23.50
2023-05-04T02:02:35.150Z,21.60
2023-05-04T02:05:03.063Z,19.30
2023-05-04T02:07:30.934Z,20.40
2023-05-04T02:09:58.692Z,20.10
2023-05-04T02:12:26.456Z,19.70
2023-05-04T02:14:54.319Z,23.10
2023-05-04T02:17:22.087Z,17.50
2023-05-04T02:19:49.860Z,21.00
2023-05-04T02:22:17.719Z,21.60
2023-05-04T02:24:45.578Z,24.60
2023-05-04T02:27:13.341Z,18.50
2023-05-04T02:29:41.121Z,25.70
2023-05-04T02:32:08.980Z,17.60
2023-05-04T02:34:37.052Z,18.40
2023-05-04T02:37:07.358Z,17.40
2023-05-04T02:39:35.679Z,18.70
2023-05-04T02:42:03.728Z,21.30
2023-05-04T02:44:31.580Z,19.50
2023-05-04T02:46:59.554Z,17.20
2023-05-04T02:49:27.276Z,17.80
2023-05-04T02:51:55.086Z,21.20
2023-05-04T02:54:22.842Z,21.30
2023-05-04T02:56:50.811Z,18.80
2023-05-04T02:59:18.689Z,22.10
2023-05-04T03:01:46.520Z,15.90
2023-05-04T03:04:14.533Z,18.20
2023-05-04T03:06:42.579Z,17.70
2023-05-04T03:09:10.660Z,18.10
2023-05-04T03:11:38.416Z,20.50
2023-05-04T03:14:06.895Z,17.60
2023-05-04T03:16:35.223Z,19.90
2023-05-04T03:19:03.344Z,18.40
2023-05-04T03:21:31.207Z,19.90
2023-05-04T03:23:59.287Z,16.40
2023-05-04T03:26:27.144Z,18.90
2023-05-04T03:28:54.912Z,18.80
2023-05-04T03:31:22.917Z,20.50
2023-05-04T03:33:50.748Z,21.40
2023-05-04T03:36:19.025Z,16.60
2023-05-04T03:38:46.887Z,19.40
2023-05-04T03:41:14.686Z,18.70
2023-05-04T03:43:43.029Z,19.80
2023-05-04T03:46:11.783Z,19.40
2023-05-04T03:48:40.317Z,14.40
2023-05-04T03:51:08.479Z,19.50
2023-05-04T03:53:36.436Z,20.60
2023-05-04T03:56:04.708Z,20.50
2023-05-04T03:58:32.432Z,18.00
2023-05-04T04:01:03.530Z,21.40
2023-05-04T04:03:31.745Z,19.50
2023-05-04T04:05:59.762Z,19.60
2023-05-04T04:08:27.622Z,20.00
2023-05-04T04:10:55.521Z,23.10
2023-05-04T04:13:23.352Z,17.70
2023-05-04T04:15:51.235Z,19.80
2023-05-04T04:18:19.086Z,19.70
2023-05-04T04:20:47.055Z,17.30
2023-05-04T04:23:18.719Z,17.60
2023-05-04T04:25:46.994Z,20.60
2023-05-04T04:28:14.852Z,19.00
2023-05-04T04:30:43.021Z,18.80
2023-05-04T04:33:11.037Z,20.80
2023-05-04T04:35:38.990Z,19.40
2023-05-04T04:38:07.252Z,18.10
2023-05-04T04:40:34.969Z,18.30
2023-05-04T04:43:03.311Z,20.20
2023-05-04T04:45:33.626Z,26.40
2023-05-04T04:48:01.986Z,16.50
2023-05-04T04:50:30.335Z,28.00
2023-05-04T04:52:58.237Z,18.60
2023-05-04T04:55:26.463Z,19.50
2023-05-04T04:57:55.747Z,18.00
2023-05-04T05:00:24.345Z,19.00
2023-05-04T05:02:52.204Z,20.70
2023-05-04T05:05:20.030Z,17.90
2023-05-04T05:07:47.892Z,18.70
2023-05-04T05:10:16.272Z,17.70
2023-05-04T05:12:44.211Z,16.30
2023-05-04T05:15:11.996Z,18.10
2023-05-04T05:17:39.809Z,14.80
2023-05-04T05:20:11.474Z,17.20
2023-05-04T05:22:39.507Z,17.40
2023-05-04T05:25:08.531Z,21.60
2023-05-04T05:27:36.854Z,12.40
2023-05-04T05:30:06.549Z,14.50
2023-05-04T05:32:34.899Z,21.40
2023-05-04T05:35:02.660Z,16.10
2023-05-04T05:37:32.438Z,14.50
2023-05-04T05:40:00.297Z,14.40
2023-05-04T05:42:30.534Z,15.20
2023-05-04T05:44:58.366Z,13.90
2023-05-04T05:47:26.157Z,16.90
2023-05-04T05:49:54.722Z,15.00
2023-05-04T05:52:23.102Z,17.20
2023-05-04T05:54:51.066Z,19.40
2023-05-04T05:57:18.929Z,15.80
2023-05-04T05:59:47.601Z,15.80
2023-05-04T06:02:15.452Z,16.20
2023-05-04T06:04:46.508Z,15.90
2023-05-04T06:07:14.601Z,13.30
2023-05-04T06:09:42.568Z,15.60
2023-05-04T06:12:13.706Z,11.90
2023-05-04T06:14:41.509Z,11.40
2023-05-04T06:17:10.045Z,13.00
2023-05-04T06:19:38.586Z,12.70
2023-05-04T06:22:06.509Z,10.50
2023-05-04T06:24:34.471Z,11.70
2023-05-04T06:27:02.521Z,9.60
2023-05-04T06:29:30.734Z,10.20
2023-05-04T06:31:59.225Z,6.60
2023-05-04T06:34:27.586Z,7.50
2023-05-04T06:36:55.783Z,12.50
2023-05-04T06:39:24.364Z,9.60
2023-05-04T06:41:55.772Z,7.90
2023-05-04T06:44:24.122Z,6.70
2023-05-04T06:46:52.395Z,6.50
2023-05-04T06:49:20.760Z,10.50
2023-05-04T06:51:48.915Z,11.40
2023-05-04T06:54:16.846Z,13.70
2023-05-04T06:56:45.390Z,10.00
2023-05-04T06:59:13.573Z,9.30
2023-05-04T07:01:42.573Z,7.90
2023-05-04T07:04:11.066Z,7.50
2023-05-04T07:06:39.917Z,10.30
2023-05-04T07:09:08.612Z,11.90
2023-05-04T07:11:36.911Z,13.50
2023-05-04T07:14:05.102Z,15.70
2023-05-04T07:16:34.584Z,10.60
2023-05-04T07:19:03.021Z,12.70
2023-05-04T07:21:31.217Z,10.10
2023-05-04T07:23:59.456Z,11.30
2023-05-04T07:26:27.934Z,9.60
2023-05-04T07:28:56.207Z,7.90
2023-05-04T07:31:24.498Z,7.80
2023-05-04T07:33:53.282Z,16.90
2023-05-04T07:36:21.618Z,11.90
2023-05-04T07:38:49.753Z,8.80
2023-05-04T07:41:18.222Z,9.30
2023-05-04T07:43:46.732Z,7.20
2023-05-04T07:46:14.521Z,10.40
2023-05-04T07:48:42.498Z,9.60
2023-05-04T07:51:14.915Z,7.40
2023-05-04T07:53:43.845Z,9.30
2023-05-04T07:56:13.368Z,7.70
2023-05-04T07:58:42.235Z,5.80
2023-05-04T08:01:10.097Z,5.70
2023-05-04T08:03:38.422Z,7.20
2023-05-04T08:06:07.965Z,5.90
2023-05-04T08:08:35.933Z,6.50
2023-05-04T08:11:18.698Z,4.70
2023-05-04T08:13:51.078Z,5.40
2023-05-04T08:18:46.654Z,5.50
2023-05-04T08:21:16.790Z,4.40
2023-05-04T08:23:44.627Z,3.20
2023-05-04T08:26:15.813Z,2.70
2023-05-04T08:28:46.758Z,2.40
2023-05-04T08:31:16.316Z,4.40
2023-05-04T08:33:46.747Z,3.30
2023-05-04T08:36:15.888Z,2.90
2023-05-04T08:38:44.268Z,3.40
2023-05-04T08:41:12.940Z,2.80
2023-05-04T08:43:41.224Z,3.90
2023-05-04T08:46:12.047Z,4.40
2023-05-04T08:48:43.423Z,7.00
2023-05-04T08:51:12.545Z,23.20
2023-05-04T08:53:47.646Z,5.20
2023-05-04T08:56:18.139Z,3.90
2023-05-04T08:58:52.114Z,5.40
2023-05-04T09:01:22.691Z,6.10
2023-05-04T09:03:52.885Z,5.40
2023-05-04T09:06:22.414Z,3.90
2023-05-04T09:08:51.541Z,5.00
2023-05-04T09:11:20.345Z,4.40
2023-05-04T09:13:49.442Z,4.60
2023-05-04T09:16:20.193Z,4.90
2023-05-04T09:18:49.950Z,7.60
2023-05-04T09:21:31.007Z,5.90
2023-05-04T09:24:00.498Z,8.30
2023-05-04T09:26:35.950Z,6.10
2023-05-04T09:29:14.192Z,4.10
2023-05-04T09:31:53.043Z,4.20
2023-05-04T09:34:23.047Z,6.20
2023-05-04T09:37:02.884Z,6.30
2023-05-04T09:39:31.907Z,4.70
2023-05-04T09:42:01.096Z,4.80
2023-05-04T09:44:30.117Z,5.90
2023-05-04T09:46:59.577Z,8.00
2023-05-04T09:49:36.262Z,5.20
2023-05-04T09:52:07.410Z,7.00
2023-05-04T09:54:36.552Z,5.20
2023-05-04T09:57:15.705Z,5.20
2023-05-04T09:59:44.646Z,4.40
2023-05-04T10:02:22.872Z,6.50
2023-05-04T10:04:53.562Z,4.20
2023-05-04T10:07:23.429Z,5.30
2023-05-04T10:09:53.649Z,4.50
2023-05-04T10:12:22.462Z,4.60
2023-05-04T10:14:51.410Z,5.50
2023-05-04T10:17:39.331Z,4.90
2023-05-04T10:20:30.697Z,4.70
2023-05-04T10:23:28.855Z,7.10
2023-05-04T10:26:50.806Z,5.50
2023-05-04T10:29:25.037Z,5.10
2023-05-04T10:31:53.957Z,5.80
2023-05-04T10:34:28.346Z,6.00
2023-05-04T10:37:00.032Z,5.00
2023-05-04T10:42:06.189Z,6.40
2023-05-04T10:44:37.678Z,4.40
2023-05-04T10:47:09.243Z,5.70
2023-05-04T10:49:40.628Z,5.10
2023-05-04T10:52:09.998Z,6.20
2023-05-04T10:54:41.702Z,4.60
2023-05-04T10:57:17.812Z,5.90
2023-05-04T10:59:59.725Z,4.70
2023-05-04T11:02:30.963Z,5.70
2023-05-04T11:05:04.948Z,5.40
2023-05-04T11:07:37.974Z,4.60
2023-05-04T11:10:09.886Z,5.10
2023-05-04T11:12:39.326Z,7.80
2023-05-04T11:15:09.546Z,5.10
2023-05-04T11:17:52.056Z,4.80
2023-05-04T11:20:27.706Z,5.10
2023-05-04T11:22:56.734Z,5.00
2023-05-04T11:25:30.822Z,5.50
2023-05-04T11:28:00.189Z,4.50
2023-05-04T11:30:35.127Z,8.00
2023-05-04T11:33:11.973Z,4.80
2023-05-04T11:35:42.608Z,6.40
2023-05-04T11:38:11.493Z,4.70
2023-05-04T11:40:41.671Z,7.00
2023-05-04T11:43:11.916Z,6.30
2023-05-04T11:45:41.697Z,5.90
2023-05-04T11:48:10.598Z,6.30
2023-05-04T11:50:39.106Z,5.30
2023-05-04T11:53:21.736Z,4.60
2023-05-04T11:55:50.761Z,5.00
2023-05-04T11:58:25.986Z,6.50
2023-05-04T12:00:58.737Z,5.10
2023-05-04T12:06:07.579Z,9.70
2023-05-04T12:08:42.556Z,4.20
2023-05-04T12:11:25.915Z,4.50
2023-05-04T12:14:12.086Z,5.40
2023-05-04T12:16:41.597Z,3.80
2023-05-04T12:19:11.589Z,4.20
2023-05-04T12:21:53.945Z,5.30
2023-05-04T12:24:24.142Z,5.20
2023-05-04T12:26:52.903Z,8.40
2023-05-04T12:29:21.538Z,6.30
2023-05-04T12:31:49.898Z,5.20
2023-05-04T12:34:18.848Z,4.50
2023-05-04T12:36:47.166Z,5.70
2023-05-04T12:39:15.338Z,6.10
2023-05-04T12:41:43.897Z,5.80
2023-05-04T12:44:14.816Z,6.30
2023-05-04T12:46:46.263Z,5.70
2023-05-04T12:49:14.785Z,6.40
2023-05-04T12:51:44.275Z,4.50
2023-05-04T12:54:12.761Z,5.20
2023-05-04T12:56:41.224Z,4.40
2023-05-04T12:59:09.792Z,7.90
2023-05-04T13:01:40.383Z,5.30
2023-05-04T13:04:08.333Z,5.50
2023-05-04T13:06:36.515Z,6.40
2023-05-04T13:09:06.154Z,7.60
2023-05-04T13:11:34.544Z,4.80
2023-05-04T13:14:02.557Z,5.00
2023-05-04T13:16:31.641Z,5.90
2023-05-04T13:18:59.957Z,5.60
2023-05-04T13:21:27.704Z,5.00
2023-05-04T13:23:55.798Z,5.90
2023-05-04T13:26:23.759Z,5.80
2023-05-04T13:28:51.887Z,4.80
2023-05-04T13:31:19.860Z,5.50
2023-05-04T13:33:50.494Z,5.30
2023-05-04T13:36:18.381Z,7.30
2023-05-04T13:38:46.241Z,4.60
2023-05-04T13:41:16.334Z,6.10
2023-05-04T13:43:44.231Z,6.00
2023-05-04T13:46:12.360Z,5.10
2023-05-04T13:48:40.169Z,4.50
2023-05-04T13:51:07.958Z,8.20
2023-05-04T13:53:35.791Z,5.10
2023-05-04T13:56:04.000Z,4.80
2023-05-04T13:58:31.856Z,6.30
2023-05-04T14:01:00.682Z,4.40
2023-05-04T14:03:31.547Z,5.90
2023-05-04T14:05:59.385Z,5.40
2023-05-04T14:08:27.173Z,4.90
2023-05-04T14:10:55.185Z,4.20
2023-05-04T14:13:23.464Z,4.70
2023-05-04T14:15:51.211Z,5.70
2023-05-04T14:18:19.069Z,6.00
2023-05-04T14:20:48.543Z,5.40
2023-05-04T14:23:16.396Z,5.90
2023-05-04T14:25:50.562Z,6.30
2023-05-04T14:28:18.796Z,5.40
2023-05-04T14:30:46.734Z,4.40
2023-05-04T14:33:14.648Z,4.40
2023-05-04T14:35:44.670Z,3.80
2023-05-04T14:38:14.171Z,5.00
2023-05-04T14:40:42.345Z,3.70
2023-05-04T14:43:10.213Z,4.00
2023-05-04T14:45:38.668Z,4.60
2023-05-04T14:48:08.820Z,8.10
2023-05-04T14:50:36.777Z,5.10
2023-05-04T14:53:04.558Z,4.20
2023-05-04T14:55:33.772Z,5.20
2023-05-04T14:58:01.539Z,4.20
2023-05-04T15:00:29.367Z,4.20
2023-05-04T15:02:57.257Z,4.40
2023-05-04T15:05:25.098Z,6.70
2023-05-04T15:07:55.403Z,4.50
2023-05-04T15:10:23.190Z,3.90
2023-05-04T15:12:51.740Z,6.30
2023-05-04T15:15:25.047Z,5.80
2023-05-04T15:17:55.886Z,11.30
2023-05-04T15:20:24.718Z,5.00
2023-05-04T15:22:53.998Z,5.80
2023-05-04T15:25:25.233Z,10.50
2023-05-04T15:27:53.866Z,11.30
2023-05-04T15:30:21.931Z,10.70
2023-05-04T15:32:50.172Z,6.40
2023-05-04T15:35:18.805Z,5.70
2023-05-04T15:37:46.636Z,9.90
2023-05-04T15:40:14.391Z,6.50
2023-05-04T15:42:42.136Z,7.30
2023-05-04T15:45:10.710Z,6.00
2023-05-04T15:47:38.931Z,6.50
2023-05-04T15:50:07.276Z,6.00
2023-05-04T15:52:35.336Z,5.00
2023-05-04T15:55:13.109Z,5.70
2023-05-04T15:57:51.376Z,5.10
2023-05-04T16:00:19.877Z,5.60
2023-05-04T16:02:48.020Z,6.20
2023-05-04T16:05:15.901Z,4.00
2023-05-04T16:07:45.356Z,8.40
2023-05-04T16:10:13.179Z,4.80
2023-05-04T16:12:41.372Z,9.50
2023-05-04T16:15:11.910Z,5.80
2023-05-04T16:17:40.107Z,6.10
2023-05-04T16:20:09.034Z,5.90
2023-05-04T16:22:37.307Z,5.20
2023-05-04T16:25:05.540Z,4.10
2023-05-04T16:27:33.407Z,8.10
2023-05-04T16:30:01.291Z,6.40
2023-05-04T16:32:29.030Z,5.20
2023-05-04T16:34:56.818Z,6.00
2023-05-04T16:37:25.028Z,6.00
2023-05-04T16:39:55.062Z,5.60
2023-05-04T16:42:23.257Z,4.80
2023-05-04T16:44:51.777Z,4.80
2023-05-04T16:47:20.604Z,4.40
2023-05-04T16:49:49.084Z,5.20
2023-05-04T16:52:17.887Z,4.80
2023-05-04T16:54:45.906Z,5.30
2023-05-04T16:57:14.056Z,7.80
2023-05-04T16:59:42.102Z,4.90
2023-05-04T17:02:10.450Z,4.60
2023-05-04T17:04:38.982Z,6.50
2023-05-04T17:07:10.653Z,5.50
2023-05-04T17:09:39.338Z,3.90
2023-05-04T17:12:07.740Z,5.50
2023-05-04T17:14:36.273Z,7.60
2023-05-04T17:17:04.639Z,3.90
2023-05-04T17:19:33.319Z,6.50
2023-05-04T17:22:02.190Z,5.60
2023-05-04T17:24:30.463Z,7.50
2023-05-04T17:26:58.899Z,10.50
2023-05-04T17:29:27.222Z,7.00
2023-05-04T17:31:55.367Z,7.60
2023-05-04T17:34:23.891Z,6.70
2023-05-04T17:36:51.879Z,4.80
2023-05-04T17:39:19.861Z,6.00
2023-05-04T17:41:49.188Z,6.40
2023-05-04T17:44:17.733Z,7.60
2023-05-04T17:46:45.920Z,9.70
2023-05-04T17:49:14.199Z,12.90
2023-05-04T17:51:42.652Z,16.10
2023-05-04T17:54:11.083Z,16.20
2023-05-04T17:56:39.420Z,12.90
2023-05-04T17:59:07.672Z,10.90
2023-05-04T18:01:36.118Z,11.00
2023-05-04T18:04:04.411Z,8.30
2023-05-04T18:06:33.056Z,8.90
2023-05-04T18:09:01.141Z,8.20
2023-05-04T18:11:28.979Z,7.00
2023-05-04T18:13:57.131Z,8.50
2023-05-04T18:16:25.915Z,6.70
2023-05-04T18:18:54.032Z,11.40
2023-05-04T18:21:21.945Z,7.40
2023-05-04T18:23:50.096Z,9.60
2023-05-04T18:26:22.858Z,8.60
2023-05-04T18:28:50.971Z,6.80
2023-05-04T18:31:19.223Z,9.80
2023-05-04T18:33:47.390Z,8.20
2023-05-04T18:36:15.550Z,8.50
2023-05-04T18:38:43.683Z,7.30
2023-05-04T18:41:12.106Z,11.10
2023-05-04T18:43:40.405Z,7.30
2023-05-04T18:46:08.723Z,10.00
2023-05-04T18:48:36.899Z,9.80
2023-05-04T18:51:05.324Z,11.20
2023-05-04T18:53:33.697Z,9.80
2023-05-04T18:56:06.701Z,13.60
2023-05-04T18:58:37.252Z,10.30
2023-05-04T19:01:06.201Z,19.90
2023-05-04T19:03:34.375Z,11.40
2023-05-04T19:06:02.364Z,14.30
2023-05-04T19:08:30.165Z,12.30
2023-05-04T19:11:03.108Z,10.70
2023-05-04T19:13:31.396Z,11.00
2023-05-04T19:15:59.149Z,9.70
2023-05-04T19:18:26.999Z,8.40
2023-05-04T19:20:54.855Z,9.00
2023-05-04T19:23:22.702Z,15.70
2023-05-04T19:25:50.468Z,16.90
2023-05-04T19:28:18.339Z,14.00
2023-05-04T19:30:46.525Z,9.60
2023-05-04T19:33:14.737Z,8.50
2023-05-04T19:35:42.856Z,9.20
2023-05-04T19:38:10.659Z,10.50
2023-05-04T19:40:39.123Z,10.60
2023-05-04T19:43:08.199Z,13.30
2023-05-04T19:45:36.260Z,8.90
2023-05-04T19:48:04.987Z,12.40
2023-05-04T19:50:32.932Z,11.90
2023-05-04T19:53:00.861Z,8.30
2023-05-04T19:55:28.591Z,13.80
2023-05-04T19:57:56.368Z,17.30
2023-05-04T20:00:24.429Z,31.60
2023-05-04T20:02:52.234Z,41.40
2023-05-04T20:05:20.122Z,29.30
2023-05-04T20:07:47.895Z,39.70
2023-05-04T20:10:15.723Z,31.20
2023-05-04T20:12:43.600Z,43.30
2023-05-04T20:15:11.792Z,52.20
2023-05-04T20:17:39.612Z,75.80
2023-05-04T20:20:08.630Z,41.50
2023-05-04T20:22:38.424Z,46.90
2023-05-04T20:25:06.544Z,39.20
2023-05-04T20:27:38.525Z,37.70
2023-05-04T20:30:07.548Z,34.70
2023-05-04T20:32:35.661Z,35.80
2023-05-04T20:35:03.825Z,34.90
2023-05-04T20:37:31.659Z,30.40
2023-05-04T20:39:59.441Z,23.70
2023-05-04T20:42:27.156Z,17.10
2023-05-04T20:44:54.961Z,13.80
2023-05-04T20:47:22.863Z,12.30
2023-05-04T20:49:51.010Z,14.20
2023-05-04T20:52:18.880Z,15.30
2023-05-04T20:54:47.012Z,13.30
2023-05-04T20:57:14.813Z,14.60
2023-05-04T20:59:42.680Z,17.20
2023-05-04T21:02:10.741Z,15.00
2023-05-04T21:04:38.707Z,16.20
2023-05-04T21:07:06.917Z,18.60
2023-05-04T21:09:34.642Z,15.80
2023-05-04T21:12:03.118Z,16.50
2023-05-04T21:14:31.085Z,16.90
2023-05-04T21:16:59.052Z,16.90
2023-05-04T21:19:26.949Z,16.80
2023-05-04T21:21:54.890Z,21.10
2023-05-04T21:24:23.179Z,19.60
2023-05-04T21:26:51.368Z,18.90
2023-05-04T21:29:19.170Z,19.20
2023-05-04T21:31:47.086Z,14.10
2023-05-04T21:34:15.408Z,19.30
2023-05-04T21:36:44.671Z,16.10
2023-05-04T21:39:12.675Z,18.00
2023-05-04T21:41:40.445Z,16.90
2023-05-04T21:44:08.222Z,15.20
2023-05-04T21:46:36.431Z,15.20
2023-05-04T21:49:04.232Z,15.80
2023-05-04T21:51:31.993Z,13.90
2023-05-04T21:53:59.927Z,15.70
2023-05-04T21:56:27.732Z,14.10
2023-05-04T21:58:55.552Z,15.30
2023-05-04T22:01:23.447Z,22.60
2023-05-04T22:03:52.968Z,19.90
2023-05-04T22:06:22.138Z,19.80
2023-05-04T22:08:49.909Z,12.80
2023-05-04T22:11:17.645Z,11.50
2023-05-04T22:13:45.424Z,14.00
2023-05-04T22:16:16.005Z,12.80
2023-05-04T22:18:46.913Z,10.20
2023-05-04T22:21:14.736Z,9.50
2023-05-04T22:23:42.601Z,9.40
2023-05-04T22:26:10.388Z,8.50
2023-05-04T22:28:38.208Z,8.00
2023-05-04T22:31:06.131Z,7.30
2023-05-04T22:33:33.977Z,6.70
2023-05-04T22:36:01.938Z,7.80
2023-05-04T22:38:29.811Z,8.10
2023-05-04T22:40:57.572Z,8.20
2023-05-04T22:43:25.648Z,7.40
2023-05-04T22:45:53.424Z,10.70
2023-05-04T22:48:21.478Z,9.70
2023-05-04T22:50:49.447Z,7.40
2023-05-04T22:53:17.517Z,7.80
2023-05-04T22:55:45.335Z,9.40
2023-05-04T22:58:13.152Z,13.90
2023-05-04T23:00:41.006Z,9.20
2023-05-04T23:03:08.950Z,8.20
2023-05-04T23:05:37.557Z,8.00
2023-05-04T23:08:05.764Z,9.90
2023-05-04T23:10:33.607Z,8.10
2023-05-04T23:13:01.516Z,8.90
2023-05-04T23:15:29.357Z,8.30
2023-05-04T23:17:57.229Z,11.60
2023-05-04T23:20:25.367Z,9.80
2023-05-04T23:22:53.340Z,8.70
2023-05-04T23:25:21.192Z,8.30
2023-05-04T23:27:48.966Z,10.30
2023-05-04T23:30:16.828Z,9.60
2023-05-04T23:32:44.652Z,8.60
2023-05-04T23:35:12.699Z,7.60
2023-05-04T23:37:40.904Z,10.00
2023-05-04T23:40:09.518Z,8.40
2023-05-04T23:42:37.719Z,8.70
2023-05-04T23:45:06.592Z,8.80
2023-05-04T23:47:34.445Z,10.10
2023-05-04T23:50:02.181Z,10.90
2023-05-04T23:52:29.949Z,8.00
2023-05-04T23:54:57.927Z,9.70
2023-05-04T23:57:25.747Z,8.00
2023-05-04T23:59:53.609Z,11.10
